createdAt,value
2019-01-20T00:02:15.686Z,-3.90
2019-01-20T00:04:44.474Z,-3.95
2019-01-20T00:07:13.263Z,-3.93
2019-01-20T00:09:42.174Z,-3.91
2019-01-20T00:12:11.526Z,-3.98
2019-01-20T00:14:40.420Z,-3.90
2019-01-20T00:17:09.488Z,-4.01
2019-01-20T00:19:38.690Z,-4.08
2019-01-20T00:22:07.729Z,-3.92
2019-01-20T00:24:36.663Z,-4.05
2019-01-20T00:27:05.829Z,-4.00
2019-01-20T00:29:35.123Z,-4.00
2019-01-20T00:32:03.980Z,-3.97
2019-01-20T00:34:32.774Z,-4.01
2019-01-20T00:37:01.563Z,-4.32
2019-01-20T00:39:30.431Z,-4.14
2019-01-20T00:41:59.459Z,-4.01
2019-01-20T00:44:28.300Z,-4.10
2019-01-20T00:46:57.400Z,-4.08
2019-01-20T00:49:26.408Z,-4.14
2019-01-20T00:51:55.499Z,-4.14
2019-01-20T00:54:24.528Z,-4.19
2019-01-20T00:56:53.474Z,-4.08
2019-01-20T00:59:22.730Z,-4.06
2019-01-20T01:01:52.024Z,-4.03
2019-01-20T01:04:21.134Z,-4.07
2019-01-20T01:06:50.054Z,-4.10
2019-01-20T01:09:19.142Z,-4.17
2019-01-20T01:11:48.011Z,-4.17
2019-01-20T01:14:38.271Z,-4.19
2019-01-20T01:17:07.322Z,-4.19
2019-01-20T01:19:36.439Z,-4.24
2019-01-20T01:22:08.318Z,-4.33
2019-01-20T01:24:37.181Z,-4.23
2019-01-20T01:27:12.069Z,-4.14
2019-01-20T01:29:46.287Z,-4.47
2019-01-20T01:32:15.364Z,-4.32
2019-01-20T01:34:44.243Z,-4.27
2019-01-20T01:37:13.290Z,-4.29
2019-01-20T01:39:42.658Z,-4.48
2019-01-20T01:42:11.520Z,-4.39
2019-01-20T01:44:40.945Z,-4.78
2019-01-20T01:47:10.070Z,-4.49
2019-01-20T01:49:38.856Z,-4.46
2019-01-20T01:52:07.790Z,-4.45
2019-01-20T01:54:36.961Z,-4.44
2019-01-20T01:57:05.961Z,-4.46
2019-01-20T01:59:34.880Z,-4.39
2019-01-20T02:02:03.741Z,-4.41
2019-01-20T02:04:32.578Z,-4.52
2019-01-20T02:07:01.609Z,-4.41
2019-01-20T02:09:30.538Z,-4.69
2019-01-20T02:11:59.501Z,-4.54
2019-01-20T02:14:28.278Z,-4.46
2019-01-20T02:16:57.190Z,-4.64
2019-01-20T02:19:26.309Z,-4.53
2019-01-20T02:21:55.124Z,-4.63
2019-01-20T02:24:23.902Z,-4.56
2019-01-20T02:26:53.313Z,-4.67
2019-01-20T02:29:22.241Z,-4.64
2019-01-20T02:31:51.079Z,-4.71
2019-01-20T02:34:19.946Z,-4.57
2019-01-20T02:36:48.743Z,-4.63
2019-01-20T02:39:17.552Z,-4.67
2019-01-20T02:41:46.319Z,-4.66
2019-01-20T02:44:15.235Z,-4.68
2019-01-20T02:46:44.038Z,-4.87
2019-01-20T02:49:12.840Z,-4.69
2019-01-20T02:51:41.619Z,-4.66
2019-01-20T02:54:10.429Z,-4.65
2019-01-20T02:56:39.263Z,-4.74
2019-01-20T02:59:08.359Z,-4.72
2019-01-20T03:01:37.431Z,-4.86
2019-01-20T03:04:06.468Z,-4.73
2019-01-20T03:06:38.342Z,-4.75
2019-01-20T03:09:09.284Z,-4.78
2019-01-20T03:11:38.472Z,-4.85
2019-01-20T03:14:13.610Z,-4.88
2019-01-20T03:16:42.642Z,-4.86
2019-01-20T03:19:11.599Z,-4.85
2019-01-20T03:21:40.471Z,-4.81
2019-01-20T03:24:09.257Z,-4.90
2019-01-20T03:26:38.212Z,-4.84
2019-01-20T03:29:08.346Z,-4.92
2019-01-20T03:31:37.162Z,-4.96
2019-01-20T03:34:06.077Z,-4.91
2019-01-20T03:36:34.883Z,-4.92
2019-01-20T03:39:05.453Z,-5.00
2019-01-20T03:41:34.243Z,-4.98
2019-01-20T03:44:03.652Z,-4.95
2019-01-20T03:46:32.512Z,-4.96
2019-01-20T03:49:01.313Z,-4.84
2019-01-20T03:51:30.106Z,-4.90
2019-01-20T03:53:58.981Z,-4.88
2019-01-20T03:56:27.951Z,-4.94
2019-01-20T03:58:56.819Z,-4.90
2019-01-20T04:01:25.766Z,-4.89
2019-01-20T04:03:54.805Z,-5.22
2019-01-20T04:06:23.614Z,-4.92
2019-01-20T04:08:52.720Z,-4.81
2019-01-20T04:11:21.623Z,-4.78
2019-01-20T04:13:50.411Z,-4.84
2019-01-20T04:16:19.994Z,-4.71
2019-01-20T04:18:49.018Z,-4.81
2019-01-20T04:21:18.142Z,-4.83
2019-01-20T04:23:46.970Z,-4.76
2019-01-20T04:26:15.760Z,-4.76
2019-01-20T04:28:44.663Z,-4.77
2019-01-20T04:31:13.457Z,-4.70
2019-01-20T04:33:42.767Z,-4.67
2019-01-20T04:36:11.656Z,-4.69
2019-01-20T04:38:40.668Z,-4.76
2019-01-20T04:41:09.838Z,-4.69
2019-01-20T04:43:38.693Z,-4.68
2019-01-20T04:46:07.589Z,-4.64
2019-01-20T04:48:36.668Z,-4.63
2019-01-20T04:51:05.597Z,-4.58
2019-01-20T04:53:34.606Z,-4.56
2019-01-20T04:56:03.786Z,-4.55
2019-01-20T04:58:32.743Z,-4.56
2019-01-20T05:01:01.543Z,-4.55
2019-01-20T05:03:30.380Z,-4.51
2019-01-20T05:05:59.283Z,-4.61
2019-01-20T05:08:28.179Z,-4.54
2019-01-20T05:10:57.184Z,-4.48
2019-01-20T05:13:26.012Z,-4.44
2019-01-20T05:15:54.807Z,-4.38
2019-01-20T05:18:24.138Z,-4.40
2019-01-20T05:20:52.987Z,-4.37
2019-01-20T05:23:22.154Z,-4.37
2019-01-20T05:25:50.909Z,-4.40
2019-01-20T05:28:20.073Z,-4.40
2019-01-20T05:30:49.134Z,-4.38
2019-01-20T05:33:18.011Z,-4.37
2019-01-20T05:35:47.033Z,-4.42
2019-01-20T05:38:15.843Z,-4.32
2019-01-20T05:40:45.373Z,-4.33
2019-01-20T05:43:14.167Z,-4.31
2019-01-20T05:45:43.071Z,-4.31
2019-01-20T05:48:11.924Z,-4.32
2019-01-20T05:50:40.999Z,-4.28
2019-01-20T05:53:10.052Z,-4.29
2019-01-20T05:55:38.853Z,-4.30
2019-01-20T05:58:07.656Z,-4.31
2019-01-20T06:00:36.809Z,-4.33
2019-01-20T06:03:05.715Z,-4.30
2019-01-20T06:05:34.788Z,-4.20
2019-01-20T06:08:03.681Z,-4.21
2019-01-20T06:10:33.056Z,-4.25
2019-01-20T06:13:02.257Z,-4.23
2019-01-20T06:15:32.195Z,-4.27
2019-01-20T06:18:01.050Z,-4.18
2019-01-20T06:20:30.092Z,-4.23
2019-01-20T06:22:59.153Z,-4.22
2019-01-20T06:25:28.497Z,-4.21
2019-01-20T06:27:57.649Z,-4.17
2019-01-20T06:30:31.973Z,-4.19
2019-01-20T06:33:00.933Z,-4.16
2019-01-20T06:35:30.101Z,-4.14
2019-01-20T06:37:59.344Z,-4.14
2019-01-20T06:40:28.134Z,-4.12
2019-01-20T06:43:01.646Z,-4.12
2019-01-20T06:45:27.581Z,-4.07
2019-01-20T06:47:56.691Z,-4.12
2019-01-20T06:50:25.484Z,-4.11
2019-01-20T06:52:54.555Z,-4.06
2019-01-20T06:55:23.595Z,-4.02
2019-01-20T06:57:52.510Z,-4.04
2019-01-20T07:00:22.880Z,-4.00
2019-01-20T07:02:51.990Z,-4.00
2019-01-20T07:05:21.105Z,-3.99
2019-01-20T07:07:50.271Z,-3.98
2019-01-20T07:10:19.312Z,-4.00
2019-01-20T07:12:48.187Z,-4.04
2019-01-20T07:15:22.139Z,-3.99
2019-01-20T07:17:51.070Z,-4.01
2019-01-20T07:20:20.116Z,-4.00
2019-01-20T07:22:49.340Z,-4.00
2019-01-20T07:25:18.461Z,-3.93
2019-01-20T07:27:47.871Z,-3.90
2019-01-20T07:30:18.759Z,-3.92
2019-01-20T07:32:47.726Z,-4.04
2019-01-20T07:35:17.051Z,-3.95
2019-01-20T07:37:46.198Z,-4.05
2019-01-20T07:40:17.034Z,-4.00
2019-01-20T07:42:45.828Z,-3.95
2019-01-20T07:45:15.408Z,-3.89
2019-01-20T07:47:44.299Z,-3.98
2019-01-20T07:50:15.687Z,-3.88
2019-01-20T07:58:09.030Z,-3.75
2019-01-20T08:00:38.036Z,-3.74
2019-01-20T08:03:09.850Z,-3.70
2019-01-20T08:05:39.221Z,-3.70
2019-01-20T08:08:08.288Z,-3.64
2019-01-20T08:10:40.400Z,-3.60
2019-01-20T08:13:09.444Z,-3.58
2019-01-20T08:15:38.705Z,-3.53
2019-01-20T08:18:07.669Z,-3.54
2019-01-20T08:20:44.976Z,-3.56
2019-01-20T08:23:14.102Z,-3.58
2019-01-20T08:25:42.998Z,-3.53
2019-01-20T08:28:11.898Z,-3.49
2019-01-20T08:30:40.812Z,-3.51
2019-01-20T08:33:10.100Z,-3.41
2019-01-20T08:35:39.115Z,-3.36
2019-01-20T08:38:08.355Z,-3.34
2019-01-20T08:40:37.459Z,-3.29
2019-01-20T08:43:08.930Z,-3.30
2019-01-20T08:46:14.149Z,-3.21
2019-01-20T08:48:43.790Z,-3.15
2019-01-20T08:51:14.199Z,-3.12
2019-01-20T08:53:43.053Z,-3.12
2019-01-20T08:56:12.016Z,-3.09
2019-01-20T08:58:41.306Z,-3.18
2019-01-20T09:01:10.613Z,-3.11
2019-01-20T09:03:41.014Z,-3.02
2019-01-20T09:06:10.047Z,-3.01
2019-01-20T09:08:38.849Z,-2.96
2019-01-20T09:11:08.115Z,-2.91
2019-01-20T09:13:39.753Z,-2.90
2019-01-20T09:16:08.229Z,-2.85
2019-01-20T09:18:37.325Z,-2.78
2019-01-20T09:21:06.551Z,-2.67
2019-01-20T09:23:35.326Z,-2.76
2019-01-20T09:26:04.471Z,-2.78
2019-01-20T09:28:33.585Z,-2.68
2019-01-20T09:31:02.548Z,-2.58
2019-01-20T09:33:31.321Z,-2.69
2019-01-20T09:36:02.911Z,-2.71
2019-01-20T09:38:32.748Z,-2.66
2019-01-20T09:41:06.255Z,-2.65
2019-01-20T09:43:36.545Z,-2.69
2019-01-20T09:46:10.479Z,-2.52
2019-01-20T09:48:42.152Z,-2.53
2019-01-20T09:51:13.306Z,-2.44
2019-01-20T09:53:42.395Z,-2.45
2019-01-20T09:56:11.449Z,-2.54
2019-01-20T09:58:41.160Z,-2.52
2019-01-20T10:01:15.783Z,-2.47
2019-01-20T10:03:44.799Z,-2.40
2019-01-20T10:06:13.784Z,-2.27
2019-01-20T10:08:43.183Z,-1.99
2019-01-20T10:11:12.104Z,-2.20
2019-01-20T10:13:41.050Z,-2.10
2019-01-20T10:16:10.024Z,-2.08
2019-01-20T10:18:38.913Z,-1.94
2019-01-20T10:21:07.785Z,-1.65
2019-01-20T10:23:36.626Z,-1.78
2019-01-20T10:26:05.601Z,-1.74
2019-01-20T10:28:34.396Z,-1.79
2019-01-20T10:31:06.263Z,-1.79
2019-01-20T10:33:35.158Z,-1.60
2019-01-20T10:36:05.947Z,-1.48
2019-01-20T10:38:37.221Z,-1.49
2019-01-20T10:41:05.852Z,-1.49
2019-01-20T10:43:34.828Z,-1.52
2019-01-20T10:46:03.958Z,-1.43
2019-01-20T10:48:33.166Z,-1.35
2019-01-20T10:51:02.112Z,-1.26
2019-01-20T10:53:32.070Z,-1.26
2019-01-20T10:56:00.995Z,-1.21
2019-01-20T10:58:30.226Z,-1.22
2019-01-20T11:00:59.732Z,-1.15
2019-01-20T11:03:29.017Z,-1.09
2019-01-20T11:05:57.895Z,-0.88
2019-01-20T11:08:30.318Z,-0.78
2019-01-20T11:11:02.548Z,-0.99
2019-01-20T11:13:32.105Z,-0.62
2019-01-20T11:16:02.429Z,-0.66
2019-01-20T11:18:31.686Z,-0.62
2019-01-20T11:21:00.992Z,-0.52
2019-01-20T11:23:32.455Z,-0.50
2019-01-20T11:26:03.631Z,-0.29
2019-01-20T11:28:35.326Z,-0.23
2019-01-20T11:31:09.317Z,-0.28
2019-01-20T11:33:38.406Z,-0.37
2019-01-20T11:36:07.325Z,-0.33
2019-01-20T11:38:36.372Z,-0.22
2019-01-20T11:41:06.237Z,-0.15
2019-01-20T11:43:35.288Z,-0.03
2019-01-20T11:46:04.174Z,0.18
2019-01-20T11:48:33.211Z,0.11
2019-01-20T11:51:02.400Z,0.19
2019-01-20T11:53:31.221Z,0.28
2019-01-20T11:56:00.012Z,0.46
2019-01-20T11:58:28.800Z,0.37
2019-01-20T12:00:57.921Z,0.15
2019-01-20T12:03:26.751Z,0.15
2019-01-20T12:05:55.525Z,0.29
2019-01-20T12:08:30.539Z,0.26
2019-01-20T12:10:55.697Z,0.46
2019-01-20T12:13:28.163Z,0.37
2019-01-20T12:15:56.949Z,0.41
2019-01-20T12:18:25.873Z,0.47
2019-01-20T12:20:55.244Z,0.62
2019-01-20T12:23:24.095Z,0.64
2019-01-20T12:25:53.306Z,0.61
2019-01-20T12:28:36.206Z,0.66
2019-01-20T12:31:05.652Z,0.69
2019-01-20T12:33:34.483Z,0.85
2019-01-20T12:36:04.060Z,0.73
2019-01-20T12:38:33.078Z,0.77
2019-01-20T12:41:01.869Z,0.61
2019-01-20T12:43:30.652Z,0.42
2019-01-20T12:46:08.474Z,0.56
2019-01-20T12:48:37.311Z,0.56
2019-01-20T12:51:06.332Z,0.73
2019-01-20T12:53:35.155Z,0.75
2019-01-20T12:56:04.119Z,0.62
2019-01-20T12:58:32.984Z,0.73
2019-01-20T13:01:02.902Z,0.89
2019-01-20T13:03:33.082Z,0.83
2019-01-20T13:06:02.573Z,0.80
2019-01-20T13:08:31.876Z,0.78
2019-01-20T13:11:00.888Z,0.74
2019-01-20T13:13:29.742Z,0.77
2019-01-20T13:15:59.840Z,0.87
2019-01-20T13:18:28.666Z,0.93
2019-01-20T13:20:57.965Z,0.64
2019-01-20T13:23:26.969Z,0.94
2019-01-20T13:25:56.081Z,1.26
2019-01-20T13:28:24.849Z,1.54
2019-01-20T13:30:53.884Z,0.77
2019-01-20T13:33:22.929Z,0.91
2019-01-20T13:35:52.407Z,0.77
2019-01-20T13:38:22.539Z,0.95
2019-01-20T13:41:13.886Z,0.85
2019-01-20T13:43:45.223Z,0.68
2019-01-20T13:46:15.080Z,0.79
2019-01-20T13:48:44.200Z,0.75
2019-01-20T13:51:13.144Z,0.91
2019-01-20T13:53:42.064Z,1.07
2019-01-20T13:56:11.082Z,1.07
2019-01-20T13:58:40.982Z,1.30
2019-01-20T14:01:09.749Z,1.20
2019-01-20T14:03:38.615Z,0.80
2019-01-20T14:06:07.879Z,0.77
2019-01-20T14:08:44.025Z,0.68
2019-01-20T14:11:07.512Z,0.65
2019-01-20T14:13:36.371Z,0.91
2019-01-20T14:16:05.508Z,0.95
2019-01-20T14:18:34.387Z,0.75
2019-01-20T14:21:03.328Z,0.60
2019-01-20T14:23:32.392Z,0.50
2019-01-20T14:26:01.229Z,0.34
2019-01-20T14:28:30.110Z,0.43
2019-01-20T14:30:58.910Z,0.30
2019-01-20T14:33:27.802Z,0.19
2019-01-20T14:35:56.729Z,0.17
2019-01-20T14:38:25.521Z,0.03
2019-01-20T14:40:54.538Z,0.02
2019-01-20T14:43:23.432Z,0.05
2019-01-20T14:45:52.648Z,-0.27
2019-01-20T14:48:21.511Z,-0.33
2019-01-20T14:50:50.405Z,-0.34
2019-01-20T14:53:19.305Z,-0.41
2019-01-20T14:55:48.671Z,-0.53
2019-01-20T14:58:17.477Z,-0.53
2019-01-20T15:00:46.281Z,-0.45
2019-01-20T15:03:15.077Z,-0.74
2019-01-20T15:05:44.042Z,-0.60
2019-01-20T15:08:12.891Z,-0.53
2019-01-20T15:10:41.782Z,-0.55
2019-01-20T15:13:10.835Z,-0.63
2019-01-20T15:15:40.980Z,-0.64
2019-01-20T15:18:10.148Z,-0.67
2019-01-20T15:20:39.851Z,-0.69
2019-01-20T15:23:08.925Z,-0.90
2019-01-20T15:25:37.955Z,-0.90
2019-01-20T15:28:07.529Z,-0.87
2019-01-20T15:30:36.497Z,-0.84
2019-01-20T15:33:06.425Z,-0.86
2019-01-20T15:35:35.348Z,-0.91
2019-01-20T15:38:04.319Z,-1.03
2019-01-20T15:40:33.183Z,-0.99
2019-01-20T15:43:05.276Z,-0.95
2019-01-20T15:45:34.172Z,-1.14
2019-01-20T15:48:03.014Z,-1.27
2019-01-20T15:50:33.003Z,-1.26
2019-01-20T15:53:02.086Z,-1.18
2019-01-20T15:55:31.335Z,-1.34
2019-01-20T15:58:00.429Z,-1.29
2019-01-20T16:00:30.894Z,-1.31
2019-01-20T16:02:59.845Z,-1.30
2019-01-20T16:05:29.393Z,-1.42
2019-01-20T16:07:58.812Z,-1.33
2019-01-20T16:10:28.152Z,-1.30
2019-01-20T16:12:57.001Z,-1.42
2019-01-20T16:15:31.368Z,-1.43
2019-01-20T16:18:00.359Z,-1.56
2019-01-20T16:20:30.574Z,-1.73
2019-01-20T16:22:59.647Z,-1.76
2019-01-20T16:25:30.431Z,-1.85
2019-01-20T16:27:59.386Z,-1.81
2019-01-20T16:30:33.506Z,-1.74
2019-01-20T16:33:02.617Z,-1.93
2019-01-20T16:35:32.241Z,-2.03
2019-01-20T16:38:01.741Z,-1.98
2019-01-20T16:40:31.300Z,-2.12
2019-01-20T16:43:00.274Z,-2.16
2019-01-20T16:45:42.844Z,-2.36
2019-01-20T16:48:12.388Z,-2.36
2019-01-20T16:50:41.356Z,-2.33
2019-01-20T16:53:10.918Z,-2.22
2019-01-20T16:55:39.874Z,-2.35
2019-01-20T16:58:08.886Z,-2.82
2019-01-20T17:00:40.480Z,-2.64
2019-01-20T17:03:09.545Z,-2.64
2019-01-20T17:05:38.405Z,-2.68
2019-01-20T17:08:08.087Z,-2.52
2019-01-20T17:10:39.260Z,-2.43
2019-01-20T17:13:09.181Z,-2.43
2019-01-20T17:15:40.890Z,-2.32
2019-01-20T17:18:11.459Z,-2.66
2019-01-20T17:20:40.624Z,-2.48
2019-01-20T17:23:09.575Z,-2.47
2019-01-20T17:25:38.638Z,-2.72
2019-01-20T17:28:07.605Z,-2.69
2019-01-20T17:30:36.667Z,-2.57
2019-01-20T17:33:06.302Z,-2.51
2019-01-20T17:35:35.490Z,-2.61
2019-01-20T17:38:04.504Z,-2.46
2019-01-20T17:40:33.255Z,-2.51
2019-01-20T17:43:02.213Z,-2.71
2019-01-20T17:45:33.400Z,-2.69
2019-01-20T17:48:06.469Z,-2.72
2019-01-20T17:50:36.589Z,-2.72
2019-01-20T17:53:06.964Z,-2.88
2019-01-20T17:55:42.274Z,-2.73
2019-01-20T17:58:13.164Z,-2.90
2019-01-20T18:00:48.131Z,-3.01
2019-01-20T18:03:17.220Z,-3.03
2019-01-20T18:05:48.793Z,-2.96
2019-01-20T18:08:17.943Z,-3.00
2019-01-20T18:10:47.048Z,-3.09
2019-01-20T18:13:15.834Z,-3.15
2019-01-20T18:15:54.094Z,-3.04
2019-01-20T18:18:18.276Z,-2.96
2019-01-20T18:20:47.340Z,-3.01
2019-01-20T18:23:16.215Z,-3.11
2019-01-20T18:32:39.706Z,-2.99
2019-01-20T18:35:09.576Z,-3.01
2019-01-20T18:37:38.534Z,-3.14
2019-01-20T18:40:11.119Z,-3.13
2019-01-20T18:42:41.701Z,-3.23
2019-01-20T18:45:12.141Z,-3.14
2019-01-20T18:47:41.195Z,-3.36
2019-01-20T18:50:12.000Z,-3.53
2019-01-20T18:52:41.255Z,-3.28
2019-01-20T18:55:11.948Z,-3.41
2019-01-20T18:57:41.208Z,-3.42
2019-01-20T19:00:28.024Z,-3.35
2019-01-20T19:02:57.211Z,-3.35
2019-01-20T19:05:26.121Z,-3.41
2019-01-20T19:07:55.622Z,-3.43
2019-01-20T19:10:24.590Z,-3.45
2019-01-20T19:12:53.837Z,-3.50
2019-01-20T19:15:23.315Z,-3.82
2019-01-20T19:17:52.511Z,-3.81
2019-01-20T19:20:22.611Z,-3.85
2019-01-20T19:22:53.488Z,-3.78
2019-01-20T19:25:25.911Z,-3.73
2019-01-20T19:27:55.989Z,-3.46
2019-01-20T19:30:30.310Z,-3.54
2019-01-20T19:32:59.709Z,-3.68
2019-01-20T19:35:28.790Z,-3.68
2019-01-20T19:37:58.079Z,-3.67
2019-01-20T19:40:27.134Z,-3.59
2019-01-20T19:42:56.370Z,-3.70
2019-01-20T19:45:25.545Z,-3.86
2019-01-20T19:47:54.728Z,-3.68
2019-01-20T19:50:24.001Z,-3.72
2019-01-20T19:52:53.207Z,-3.56
2019-01-20T19:55:24.396Z,-3.52
2019-01-20T19:57:53.504Z,-3.54
2019-01-20T20:00:23.766Z,-3.74
2019-01-20T20:02:52.860Z,-3.61
2019-01-20T20:05:22.094Z,-3.52
2019-01-20T20:10:36.627Z,-3.80
2019-01-20T20:13:07.189Z,-3.59
2019-01-20T20:15:36.240Z,-3.48
2019-01-20T20:18:12.349Z,-3.46
2019-01-20T20:21:14.562Z,-3.59
2019-01-20T20:24:14.027Z,-3.50
2019-01-20T20:26:44.633Z,-3.53
2019-01-20T20:32:37.096Z,-3.63
2019-01-20T20:35:19.324Z,-3.46
2019-01-20T20:38:01.110Z,-3.53
2019-01-20T20:40:33.498Z,-3.59
2019-01-20T20:44:12.497Z,-3.65
2019-01-20T20:52:27.457Z,-3.61
2019-01-20T20:53:22.326Z,-3.51
2019-01-20T21:03:31.094Z,-3.51
2019-01-20T21:06:59.086Z,-3.74
2019-01-20T21:09:48.050Z,-3.67
2019-01-20T21:15:03.392Z,-3.67
2019-01-20T21:17:36.219Z,-3.59
2019-01-20T21:20:23.762Z,-3.65
2019-01-20T21:23:02.038Z,-3.87
2019-01-20T21:25:51.965Z,-3.81
2019-01-20T21:28:28.908Z,-3.73
2019-01-20T21:31:04.671Z,-3.84
2019-01-20T21:33:35.123Z,-3.98
2019-01-20T21:36:10.087Z,-4.13
2019-01-20T21:39:07.467Z,-3.92
2019-01-20T21:44:56.581Z,-4.14
2019-01-20T21:47:31.497Z,-4.02
2019-01-20T21:50:04.319Z,-4.09
2019-01-20T21:52:34.723Z,-4.11
2019-01-20T21:55:10.306Z,-4.15
2019-01-20T21:57:40.806Z,-3.99
2019-01-20T22:00:12.433Z,-3.92
2019-01-20T22:02:44.343Z,-4.11
2019-01-20T22:05:18.414Z,-4.01
2019-01-20T22:07:47.763Z,-4.04
2019-01-20T22:10:19.573Z,-4.00
2019-01-20T22:12:49.730Z,-4.25
2019-01-20T22:15:18.606Z,-4.12
2019-01-20T22:17:47.861Z,-4.14
2019-01-20T22:20:18.747Z,-4.03
2019-01-20T22:22:51.063Z,-4.33
2019-01-20T22:25:20.033Z,-4.22
2019-01-20T22:27:48.984Z,-4.23
2019-01-20T22:30:27.482Z,-4.06
2019-01-20T22:32:56.539Z,-4.07
2019-01-20T22:35:25.695Z,-4.01
2019-01-20T22:37:54.666Z,-4.17
2019-01-20T22:40:23.857Z,-4.01
2019-01-20T22:42:52.737Z,-3.90
2019-01-20T22:45:26.602Z,-3.92
2019-01-20T22:47:55.536Z,-3.95
2019-01-20T22:50:24.606Z,-3.87
2019-01-20T22:52:53.654Z,-3.93
2019-01-20T22:55:22.792Z,-4.16
2019-01-20T22:57:51.720Z,-4.05
2019-01-20T23:00:48.373Z,-4.09
2019-01-20T23:03:17.503Z,-3.99
2019-01-20T23:05:46.545Z,-3.99
2019-01-20T23:08:15.465Z,-3.94
2019-01-20T23:10:44.400Z,-3.89
2019-01-20T23:13:13.417Z,-3.90
2019-01-20T23:15:42.731Z,-3.98
2019-01-20T23:18:11.729Z,-3.99
2019-01-20T23:20:40.627Z,-4.21
2019-01-20T23:23:09.658Z,-4.05
2019-01-20T23:25:38.533Z,-3.90
2019-01-20T23:28:07.337Z,-4.07
2019-01-20T23:30:36.557Z,-4.07
2019-01-20T23:33:05.803Z,-4.04
2019-01-20T23:35:34.777Z,-4.00
2019-01-20T23:38:03.587Z,-3.99
2019-01-20T23:40:32.862Z,-4.11
2019-01-20T23:43:02.017Z,-4.09
2019-01-20T23:45:30.824Z,-4.13
2019-01-20T23:47:59.647Z,-3.95
2019-01-20T23:50:28.489Z,-4.04
2019-01-20T23:52:57.298Z,-3.82
2019-01-20T23:55:27.742Z,-3.90
2019-01-20T23:57:56.825Z,-4.08
